createdAt,value
2024-04-24T00:00:48.152Z,21.07
2024-04-24T00:03:15.936Z,20.89
2024-04-24T00:05:43.737Z,20.50
2024-04-24T00:08:11.529Z,20.96
2024-04-24T00:10:39.494Z,21.01
2024-04-24T00:13:07.466Z,20.63
2024-04-24T00:15:35.224Z,20.15
2024-04-24T00:18:03.027Z,20.99
2024-04-24T00:20:30.968Z,20.66
2024-04-24T00:22:58.852Z,20.58
2024-04-24T00:25:26.616Z,21.45
2024-04-24T00:27:54.387Z,21.44
2024-04-24T00:30:22.123Z,21.48
2024-04-24T00:32:49.968Z,21.05
2024-04-24T00:35:17.856Z,22.36
2024-04-24T00:37:45.679Z,21.98
2024-04-24T00:40:13.480Z,23.07
2024-04-24T00:42:41.272Z,23.53
2024-04-24T00:45:09.050Z,23.37
2024-04-24T00:47:36.989Z,24.08
2024-04-24T00:50:04.835Z,23.53
2024-04-24T00:52:32.669Z,23.76
2024-04-24T00:55:00.477Z,23.06
2024-04-24T00:57:28.260Z,23.06
2024-04-24T00:59:57.244Z,23.82
2024-04-24T01:02:25.036Z,22.28
2024-04-24T01:04:52.855Z,22.12
2024-04-24T01:07:20.652Z,21.98
2024-04-24T01:09:48.403Z,20.52
2024-04-24T01:12:16.158Z,20.20
2024-04-24T01:14:43.920Z,20.52
2024-04-24T01:17:11.773Z,19.52
2024-04-24T01:19:39.748Z,19.06
2024-04-24T01:22:07.529Z,19.25
2024-04-24T01:24:35.256Z,18.56
2024-04-24T01:27:03.026Z,18.30
2024-04-24T01:29:30.779Z,18.48
2024-04-24T01:31:58.588Z,17.63
2024-04-24T01:34:26.349Z,18.15
2024-04-24T01:36:54.122Z,18.51
2024-04-24T01:39:21.940Z,18.15
2024-04-24T01:41:49.668Z,18.99
2024-04-24T01:44:17.566Z,19.86
2024-04-24T01:46:45.441Z,19.50
2024-04-24T01:49:13.230Z,19.23
2024-04-24T01:51:40.991Z,18.88
2024-04-24T01:54:08.733Z,17.72
2024-04-24T01:56:36.491Z,17.90
2024-04-24T01:59:04.275Z,17.94
2024-04-24T02:01:32.035Z,18.17
2024-04-24T02:03:59.785Z,19.17
2024-04-24T02:06:27.576Z,19.79
2024-04-24T02:08:55.338Z,19.77
2024-04-24T02:11:23.184Z,20.30
2024-04-24T02:13:50.969Z,19.79
2024-04-24T02:16:18.746Z,19.42
2024-04-24T02:18:46.675Z,20.52
2024-04-24T02:21:14.450Z,19.20
2024-04-24T02:23:42.215Z,19.98
2024-04-24T02:26:10.035Z,19.48
2024-04-24T02:28:37.867Z,18.73
2024-04-24T02:31:05.629Z,18.25
2024-04-24T02:33:33.430Z,17.97
2024-04-24T02:36:01.220Z,18.25
2024-04-24T02:38:28.981Z,17.48
2024-04-24T02:40:56.791Z,17.12
2024-04-24T02:43:24.530Z,17.24
2024-04-24T02:45:53.694Z,18.09
2024-04-24T02:48:37.380Z,17.14
2024-04-24T02:51:05.290Z,18.33
2024-04-24T02:53:33.053Z,18.58
2024-04-24T02:56:00.859Z,19.18
2024-04-24T02:58:28.663Z,18.13
2024-04-24T03:00:56.458Z,18.54
2024-04-24T03:03:24.372Z,19.24
2024-04-24T03:05:52.146Z,19.07
2024-04-24T03:08:23.432Z,18.96
2024-04-24T03:10:51.244Z,19.60
2024-04-24T03:13:19.027Z,19.10
2024-04-24T03:15:46.842Z,19.28
2024-04-24T03:18:14.653Z,19.83
2024-04-24T03:20:42.486Z,19.64
2024-04-24T03:23:10.242Z,18.93
2024-04-24T03:25:38.024Z,18.88
2024-04-24T03:28:05.797Z,19.26
2024-04-24T03:30:33.550Z,19.33
2024-04-24T03:33:01.476Z,19.47
2024-04-24T03:35:29.439Z,20.41
2024-04-24T03:37:57.231Z,19.44
2024-04-24T03:40:25.012Z,19.08
2024-04-24T03:42:52.768Z,19.59
2024-04-24T03:45:20.520Z,20.93
2024-04-24T03:47:48.473Z,20.17
2024-04-24T03:50:16.336Z,20.49
2024-04-24T03:52:44.083Z,20.06
2024-04-24T03:55:11.862Z,19.46
2024-04-24T03:57:39.606Z,19.08
2024-04-24T04:00:07.352Z,19.33
2024-04-24T04:02:35.194Z,18.43
2024-04-24T04:05:03.023Z,18.45
2024-04-24T04:07:30.806Z,17.42
2024-04-24T04:09:58.557Z,17.05
2024-04-24T04:12:39.271Z,17.83
2024-04-24T04:15:24.991Z,17.49
2024-04-24T04:17:52.869Z,18.20
2024-04-24T04:20:20.763Z,17.17
2024-04-24T04:22:48.641Z,16.38
2024-04-24T04:25:16.422Z,16.71
2024-04-24T04:27:44.207Z,16.73
2024-04-24T04:30:11.974Z,15.31
2024-04-24T04:32:39.847Z,15.81
2024-04-24T04:35:07.671Z,15.76
2024-04-24T04:37:38.904Z,15.58
2024-04-24T04:40:07.416Z,15.14
2024-04-24T04:42:35.164Z,15.40
2024-04-24T04:45:02.891Z,14.76
2024-04-24T04:47:30.758Z,15.43
2024-04-24T04:49:58.549Z,15.67
2024-04-24T04:52:26.327Z,14.59
2024-04-24T04:54:54.086Z,14.19
2024-04-24T04:57:21.819Z,13.36
2024-04-24T04:59:49.561Z,12.87
2024-04-24T05:02:17.351Z,13.40
2024-04-24T05:04:45.141Z,13.35
2024-04-24T05:07:12.884Z,12.86
2024-04-24T05:09:40.597Z,13.26
2024-04-24T05:12:08.382Z,13.17
2024-04-24T05:14:36.155Z,13.27
2024-04-24T05:17:04.004Z,13.70
2024-04-24T05:19:31.811Z,13.57
2024-04-24T05:21:59.550Z,13.07
2024-04-24T05:24:27.292Z,13.87
2024-04-24T05:26:55.054Z,13.78
2024-04-24T05:29:22.954Z,13.72
2024-04-24T05:31:50.770Z,12.11
2024-04-24T05:34:18.541Z,13.56
2024-04-24T05:36:46.297Z,14.36
2024-04-24T05:39:14.071Z,13.12
2024-04-24T05:41:41.835Z,12.95
2024-04-24T05:44:09.641Z,13.20
2024-04-24T05:46:37.406Z,12.65
2024-04-24T05:49:05.180Z,12.82
2024-04-24T05:51:32.963Z,12.63
2024-04-24T05:54:00.741Z,12.50
2024-04-24T05:56:28.549Z,12.38
2024-04-24T05:58:56.337Z,11.85
2024-04-24T06:01:24.091Z,11.24
2024-04-24T06:03:51.857Z,11.13
2024-04-24T06:06:19.606Z,10.36
2024-04-24T06:08:47.329Z,10.84
2024-04-24T06:11:15.165Z,10.67
2024-04-24T06:13:42.974Z,10.68
2024-04-24T06:16:10.721Z,10.31
2024-04-24T06:18:38.498Z,10.57
2024-04-24T06:21:06.305Z,10.21
2024-04-24T06:23:34.082Z,10.04
2024-04-24T06:26:03.073Z,10.09
2024-04-24T06:28:30.807Z,10.39
2024-04-24T06:30:58.541Z,10.98
2024-04-24T06:33:26.343Z,11.32
2024-04-24T06:35:54.119Z,10.53
2024-04-24T06:38:21.938Z,10.67
2024-04-24T06:40:54.744Z,10.77
2024-04-24T06:43:22.553Z,10.40
2024-04-24T06:45:50.301Z,10.37
2024-04-24T06:48:18.248Z,10.25
2024-04-24T06:50:46.076Z,9.48
2024-04-24T06:53:13.902Z,9.21
2024-04-24T06:55:41.697Z,8.61
2024-04-24T06:58:09.423Z,8.86
2024-04-24T07:00:37.286Z,9.01
2024-04-24T07:03:05.193Z,9.29
2024-04-24T07:05:32.980Z,9.32
2024-04-24T07:08:00.839Z,8.83
2024-04-24T07:10:28.632Z,8.73
2024-04-24T07:12:56.390Z,8.77
2024-04-24T07:15:24.127Z,8.44
2024-04-24T07:17:51.990Z,8.88
2024-04-24T07:20:19.857Z,8.84
2024-04-24T07:22:47.623Z,8.51
2024-04-24T07:25:15.405Z,8.43
2024-04-24T07:27:43.143Z,8.92
2024-04-24T07:30:10.976Z,8.91
2024-04-24T07:32:38.794Z,8.59
2024-04-24T07:35:06.680Z,9.01
2024-04-24T07:37:34.456Z,9.13
2024-04-24T07:40:02.220Z,14.93
2024-04-24T07:42:29.985Z,15.65
2024-04-24T07:44:57.738Z,9.85
2024-04-24T07:47:25.637Z,9.87
2024-04-24T07:49:53.527Z,9.34
2024-04-24T07:52:21.260Z,9.23
2024-04-24T07:54:49.013Z,8.94
2024-04-24T07:57:16.736Z,8.34
2024-04-24T07:59:44.495Z,8.42
2024-04-24T08:02:12.334Z,9.17
2024-04-24T08:04:40.094Z,9.00
2024-04-24T08:07:07.875Z,8.94
2024-04-24T08:09:35.626Z,8.70
2024-04-24T08:12:04.714Z,8.76
2024-04-24T08:14:33.375Z,8.81
2024-04-24T08:17:01.227Z,9.21
2024-04-24T08:19:29.002Z,8.41
2024-04-24T08:21:56.738Z,8.53
2024-04-24T08:24:24.606Z,8.55
2024-04-24T08:26:52.339Z,8.37
2024-04-24T08:29:20.158Z,8.63
2024-04-24T08:31:47.916Z,7.99
2024-04-24T08:34:15.671Z,8.49
2024-04-24T08:36:45.640Z,9.11
2024-04-24T08:39:13.625Z,8.46
2024-04-24T08:41:41.365Z,7.68
2024-04-24T08:44:09.111Z,7.57
2024-04-24T08:46:36.903Z,8.14
2024-04-24T08:49:04.665Z,7.40
2024-04-24T08:51:32.470Z,6.91
2024-04-24T08:54:00.231Z,7.29
2024-04-24T08:56:28.065Z,7.66
2024-04-24T08:58:55.895Z,7.67
2024-04-24T09:01:23.671Z,8.03
2024-04-24T09:03:51.846Z,8.31
2024-04-24T09:06:19.717Z,8.41
2024-04-24T09:08:48.114Z,8.24
2024-04-24T09:11:16.190Z,8.31
2024-04-24T09:13:44.009Z,8.27
2024-04-24T09:16:11.745Z,8.02
2024-04-24T09:18:39.543Z,8.39
2024-04-24T09:21:07.298Z,8.03
2024-04-24T09:23:35.068Z,7.81
2024-04-24T09:26:02.946Z,8.27
2024-04-24T09:28:30.688Z,8.85
2024-04-24T09:30:58.470Z,7.94
2024-04-24T09:33:26.387Z,8.34
2024-04-24T09:35:54.188Z,7.42
2024-04-24T09:38:21.986Z,7.04
2024-04-24T09:40:49.801Z,7.07
2024-04-24T09:43:20.075Z,7.81
2024-04-24T09:45:49.362Z,7.73
2024-04-24T09:48:18.096Z,7.59
2024-04-24T09:50:47.522Z,7.57
2024-04-24T09:53:15.332Z,7.56
2024-04-24T09:55:43.191Z,7.10
2024-04-24T09:58:10.926Z,7.95
2024-04-24T10:00:38.693Z,8.09
2024-04-24T10:03:06.501Z,8.32
2024-04-24T10:05:39.555Z,8.41
2024-04-24T10:08:15.151Z,8.41
2024-04-24T10:10:43.007Z,8.26
2024-04-24T10:13:10.811Z,8.31
2024-04-24T10:15:38.563Z,7.99
2024-04-24T10:18:06.582Z,7.83
2024-04-24T10:20:34.361Z,8.09
2024-04-24T10:23:02.129Z,7.23
2024-04-24T10:25:29.876Z,7.50
2024-04-24T10:27:57.614Z,7.51
2024-04-24T10:30:25.351Z,7.11
2024-04-24T10:32:53.295Z,6.93
2024-04-24T10:35:21.137Z,7.38
2024-04-24T10:37:48.870Z,7.58
2024-04-24T10:40:16.804Z,7.52
2024-04-24T10:42:44.536Z,7.53
2024-04-24T10:45:12.280Z,8.08
2024-04-24T10:47:40.113Z,8.46
2024-04-24T10:50:07.898Z,8.57
2024-04-24T10:52:35.663Z,8.02
2024-04-24T10:55:03.663Z,7.78
2024-04-24T10:57:31.411Z,8.23
2024-04-24T10:59:59.167Z,8.31
2024-04-24T11:02:26.991Z,8.08
2024-04-24T11:04:54.843Z,8.13
2024-04-24T11:07:32.278Z,8.83
2024-04-24T11:10:04.128Z,8.08
2024-04-24T11:12:31.859Z,7.65
2024-04-24T11:14:59.619Z,7.48
2024-04-24T11:17:27.524Z,7.61
2024-04-24T11:19:55.448Z,7.34
2024-04-24T11:22:23.202Z,7.82
2024-04-24T11:24:50.944Z,7.46
2024-04-24T11:27:18.699Z,8.04
2024-04-24T11:29:46.441Z,8.49
2024-04-24T11:32:14.284Z,8.07
2024-04-24T11:34:42.126Z,7.84
2024-04-24T11:37:09.883Z,7.65
2024-04-24T11:39:37.628Z,7.35
2024-04-24T11:42:05.385Z,7.14
2024-04-24T11:44:33.176Z,7.10
2024-04-24T11:47:00.980Z,7.61
2024-04-24T11:49:28.798Z,7.06
2024-04-24T11:51:56.567Z,7.82
2024-04-24T11:54:24.328Z,7.90
2024-04-24T11:56:52.076Z,7.54
2024-04-24T11:59:19.859Z,7.72
2024-04-24T12:01:47.653Z,8.40
2024-04-24T12:04:15.398Z,7.66
2024-04-24T12:06:43.288Z,7.69
2024-04-24T12:09:11.131Z,7.09
2024-04-24T12:11:39.067Z,7.61
2024-04-24T12:14:06.863Z,7.34
2024-04-24T12:16:34.607Z,7.43
2024-04-24T12:19:02.357Z,7.68
2024-04-24T12:21:30.078Z,7.40
2024-04-24T12:23:57.821Z,7.79
2024-04-24T12:26:25.624Z,7.77
2024-04-24T12:28:53.523Z,7.73
2024-04-24T12:31:21.256Z,7.52
2024-04-24T12:33:49.127Z,7.28
2024-04-24T12:36:16.920Z,7.79
2024-04-24T12:38:44.671Z,7.76
2024-04-24T12:41:12.453Z,7.67
2024-04-24T12:43:40.199Z,7.98
2024-04-24T12:46:07.964Z,7.87
2024-04-24T12:48:37.962Z,7.56
2024-04-24T12:51:07.293Z,7.58
2024-04-24T12:53:35.029Z,7.20
2024-04-24T12:56:02.803Z,7.14
2024-04-24T12:58:30.533Z,7.08
2024-04-24T13:00:58.402Z,7.25
2024-04-24T13:03:26.303Z,7.23
2024-04-24T13:05:54.150Z,7.02
2024-04-24T13:08:22.029Z,7.98
2024-04-24T13:10:49.849Z,8.05
2024-04-24T13:13:17.620Z,7.53
2024-04-24T13:15:45.379Z,7.00
2024-04-24T13:18:13.383Z,6.94
2024-04-24T13:20:41.316Z,6.75
2024-04-24T13:23:09.159Z,7.39
2024-04-24T13:25:36.930Z,7.16
2024-04-24T13:28:04.878Z,6.67
2024-04-24T13:30:32.690Z,7.81
2024-04-24T13:33:00.595Z,7.47
2024-04-24T13:35:28.470Z,7.64
2024-04-24T13:37:56.233Z,7.93
2024-04-24T13:40:23.986Z,7.21
2024-04-24T13:42:51.729Z,7.13
2024-04-24T13:45:19.471Z,7.46
2024-04-24T13:47:47.410Z,7.64
2024-04-24T13:50:15.313Z,8.00
2024-04-24T13:52:43.123Z,7.59
2024-04-24T13:55:10.869Z,8.39
2024-04-24T13:57:38.664Z,8.49
2024-04-24T14:00:06.478Z,8.55
2024-04-24T14:02:35.039Z,8.26
2024-04-24T14:05:03.025Z,8.62
2024-04-24T14:07:30.814Z,8.71
2024-04-24T14:09:58.543Z,8.79
2024-04-24T14:12:26.729Z,8.12
2024-04-24T14:14:54.534Z,9.16
2024-04-24T14:17:23.377Z,9.21
2024-04-24T14:19:51.109Z,9.58
2024-04-24T14:22:18.849Z,9.49
2024-04-24T14:24:46.624Z,9.88
2024-04-24T14:27:14.367Z,9.92
2024-04-24T14:29:42.121Z,10.25
2024-04-24T14:32:09.925Z,10.80
2024-04-24T14:34:37.717Z,11.56
2024-04-24T14:37:05.469Z,10.92
2024-04-24T14:39:33.228Z,11.32
2024-04-24T14:42:00.967Z,12.47
2024-04-24T14:44:28.838Z,12.33
2024-04-24T14:46:56.738Z,11.34
2024-04-24T14:49:24.567Z,11.90
2024-04-24T14:51:52.420Z,12.71
2024-04-24T14:54:20.179Z,11.85
2024-04-24T14:56:47.935Z,11.68
2024-04-24T14:59:15.698Z,11.53
2024-04-24T15:01:43.670Z,11.26
2024-04-24T15:04:11.563Z,10.67
2024-04-24T15:06:39.327Z,10.52
2024-04-24T15:09:07.053Z,10.14
2024-04-24T15:11:34.868Z,10.39
2024-04-24T15:14:02.654Z,10.24
2024-04-24T15:16:30.396Z,10.77
2024-04-24T15:18:58.168Z,10.98
2024-04-24T15:21:25.922Z,10.33
2024-04-24T15:23:53.692Z,10.77
2024-04-24T15:26:21.484Z,10.14
2024-04-24T15:28:49.272Z,9.99
2024-04-24T15:31:17.022Z,9.87
2024-04-24T15:33:44.902Z,9.88
2024-04-24T15:36:12.672Z,9.98
2024-04-24T15:38:40.420Z,9.65
2024-04-24T15:41:08.218Z,8.92
2024-04-24T15:43:36.009Z,9.80
2024-04-24T15:46:03.761Z,9.58
2024-04-24T15:48:31.643Z,9.57
2024-04-24T15:50:59.482Z,9.21
2024-04-24T15:53:27.290Z,8.99
2024-04-24T15:55:55.055Z,8.44
2024-04-24T15:58:22.819Z,8.30
2024-04-24T16:00:50.569Z,7.88
2024-04-24T16:03:18.427Z,6.73
2024-04-24T16:05:46.382Z,6.65
2024-04-24T16:08:14.266Z,5.97
2024-04-24T16:10:42.069Z,5.85
2024-04-24T16:13:09.803Z,5.72
2024-04-24T16:15:37.554Z,6.24
2024-04-24T16:18:05.451Z,6.14
2024-04-24T16:20:33.364Z,6.85
2024-04-24T16:23:01.217Z,6.22
2024-04-24T16:25:28.981Z,5.27
2024-04-24T16:27:56.749Z,5.38
2024-04-24T16:30:24.513Z,5.36
2024-04-24T16:32:52.301Z,4.87
2024-04-24T16:35:20.129Z,5.00
2024-04-24T16:37:47.898Z,5.07
2024-04-24T16:40:15.664Z,5.38
2024-04-24T16:42:43.408Z,5.32
2024-04-24T16:45:11.167Z,5.31
2024-04-24T16:47:39.025Z,5.40
2024-04-24T16:50:06.885Z,5.48
2024-04-24T16:52:35.670Z,5.48
2024-04-24T16:55:03.436Z,5.51
2024-04-24T16:57:31.259Z,5.40
2024-04-24T16:59:59.078Z,5.59
2024-04-24T17:02:26.856Z,5.63
2024-04-24T17:04:54.621Z,5.88
2024-04-24T17:07:22.443Z,5.64
2024-04-24T17:09:50.187Z,5.68
2024-04-24T17:12:17.905Z,5.19
2024-04-24T17:14:45.638Z,5.36
2024-04-24T17:17:13.450Z,5.70
2024-04-24T17:19:41.275Z,5.33
2024-04-24T17:22:09.024Z,5.10
2024-04-24T17:24:36.773Z,5.65
2024-04-24T17:27:04.532Z,9.26
2024-04-24T17:29:32.408Z,8.46
2024-04-24T17:32:00.290Z,6.39
2024-04-24T17:34:28.151Z,7.05
2024-04-24T17:36:55.904Z,6.36
2024-04-24T17:39:23.642Z,4.76
2024-04-24T17:41:51.362Z,6.69
2024-04-24T17:44:19.158Z,5.87
2024-04-24T17:46:46.886Z,8.05
2024-04-24T17:49:14.642Z,7.46
2024-04-24T17:51:42.395Z,4.88
2024-04-24T17:54:10.142Z,8.12
2024-04-24T17:56:37.893Z,10.25
2024-04-24T17:59:05.653Z,5.28
2024-04-24T18:01:33.424Z,4.97
2024-04-24T18:04:01.194Z,4.47
2024-04-24T18:06:28.974Z,4.11
2024-04-24T18:08:56.719Z,4.89
2024-04-24T18:11:24.543Z,4.80
2024-04-24T18:13:52.321Z,4.88
2024-04-24T18:16:20.044Z,4.43
2024-04-24T18:18:47.862Z,4.10
2024-04-24T18:21:15.695Z,4.52
2024-04-24T18:23:43.452Z,4.62
2024-04-24T18:26:11.193Z,4.48
2024-04-24T18:28:38.965Z,4.34
2024-04-24T18:31:06.855Z,4.28
2024-04-24T18:33:34.714Z,4.22
2024-04-24T18:36:02.665Z,4.23
2024-04-24T18:38:30.642Z,4.09
2024-04-24T18:40:58.561Z,4.24
2024-04-24T18:43:26.396Z,4.19
2024-04-24T18:45:54.161Z,4.24
2024-04-24T18:48:22.055Z,4.00
2024-04-24T18:50:49.858Z,4.19
2024-04-24T18:53:17.629Z,4.17
2024-04-24T18:55:45.391Z,4.26
2024-04-24T18:58:13.157Z,4.49
2024-04-24T19:00:40.943Z,4.60
2024-04-24T19:03:08.758Z,4.86
2024-04-24T19:05:36.654Z,4.97
2024-04-24T19:08:04.488Z,4.70
2024-04-24T19:10:32.293Z,4.77
2024-04-24T19:13:00.054Z,4.83
2024-04-24T19:15:27.813Z,5.29
2024-04-24T19:17:55.673Z,5.30
2024-04-24T19:20:23.472Z,5.19
2024-04-24T19:22:51.271Z,5.05
2024-04-24T19:25:18.995Z,5.33
2024-04-24T19:27:46.758Z,4.70
2024-04-24T19:30:14.488Z,5.29
2024-04-24T19:32:42.414Z,4.97
2024-04-24T19:35:10.251Z,5.05
2024-04-24T19:37:38.011Z,5.01
2024-04-24T19:40:05.756Z,4.90
2024-04-24T19:42:33.513Z,5.10
2024-04-24T19:45:01.270Z,4.69
2024-04-24T19:47:29.070Z,4.45
2024-04-24T19:49:56.878Z,4.27
2024-04-24T19:52:24.626Z,4.60
2024-04-24T19:54:52.378Z,4.64
2024-04-24T19:57:20.124Z,4.34
2024-04-24T19:59:47.871Z,4.44
2024-04-24T20:02:19.212Z,4.52
2024-04-24T20:04:48.588Z,4.12
2024-04-24T20:07:16.340Z,4.24
2024-04-24T20:09:44.102Z,4.36
2024-04-24T20:12:11.920Z,4.77
2024-04-24T20:14:39.716Z,4.62
2024-04-24T20:17:07.557Z,4.77
2024-04-24T20:19:35.386Z,4.89
2024-04-24T20:22:03.123Z,5.12
2024-04-24T20:24:30.832Z,5.37
2024-04-24T20:26:58.563Z,4.85
2024-04-24T20:29:26.384Z,5.14
2024-04-24T20:31:54.168Z,4.85
2024-04-24T20:34:21.929Z,5.12
2024-04-24T20:36:49.675Z,5.28
2024-04-24T20:39:17.449Z,5.41
2024-04-24T20:41:45.209Z,5.12
2024-04-24T20:44:12.963Z,4.59
2024-04-24T20:46:40.741Z,4.29
2024-04-24T20:49:08.493Z,3.53
2024-04-24T20:51:36.222Z,3.03
2024-04-24T20:54:03.977Z,2.97
2024-04-24T20:56:31.757Z,2.81
2024-04-24T20:58:59.583Z,2.74
2024-04-24T21:01:27.323Z,2.60
2024-04-24T21:03:55.109Z,2.60
2024-04-24T21:06:22.856Z,2.61
2024-04-24T21:08:51.748Z,2.66
2024-04-24T21:11:19.570Z,3.15
2024-04-24T21:13:47.369Z,2.93
2024-04-24T21:16:15.106Z,2.69
2024-04-24T21:18:43.043Z,2.84
2024-04-24T21:21:10.836Z,2.79
2024-04-24T21:23:38.644Z,2.75
2024-04-24T21:26:06.422Z,2.78
2024-04-24T21:28:34.165Z,3.12
2024-04-24T21:31:01.910Z,3.06
2024-04-24T21:33:29.702Z,2.73
2024-04-24T21:35:57.453Z,3.97
2024-04-24T21:38:25.234Z,3.41
2024-04-24T21:40:53.013Z,3.39
2024-04-24T21:43:20.740Z,4.02
2024-04-24T21:45:48.492Z,4.30
2024-04-24T21:48:16.285Z,4.36
2024-04-24T21:50:44.140Z,4.38
2024-04-24T21:53:11.965Z,4.33
2024-04-24T21:55:39.680Z,4.33
2024-04-24T21:58:07.427Z,4.96
2024-04-24T22:00:35.306Z,4.47
2024-04-24T22:03:03.075Z,4.30
2024-04-24T22:05:30.869Z,4.15
2024-04-24T22:07:58.656Z,4.35
2024-04-24T22:10:26.455Z,4.28
2024-04-24T22:12:54.197Z,4.24
2024-04-24T22:15:21.910Z,4.07
2024-04-24T22:17:49.821Z,4.05
2024-04-24T22:20:17.647Z,3.99
2024-04-24T22:22:45.436Z,4.07
2024-04-24T22:25:13.174Z,4.03
2024-04-24T22:27:40.916Z,3.77
2024-04-24T22:30:08.656Z,3.89
2024-04-24T22:32:36.575Z,4.01
2024-04-24T22:35:04.424Z,4.02
2024-04-24T22:37:32.230Z,4.33
2024-04-24T22:39:59.979Z,4.38
2024-04-24T22:42:27.728Z,4.35
2024-04-24T22:44:55.475Z,4.59
2024-04-24T22:47:23.244Z,4.80
2024-04-24T22:49:50.984Z,4.65
2024-04-24T22:52:18.731Z,4.63
2024-04-24T22:54:46.480Z,4.28
2024-04-24T22:57:14.215Z,4.90
2024-04-24T22:59:42.022Z,4.82
2024-04-24T23:02:09.835Z,5.28
2024-04-24T23:04:37.597Z,5.16
2024-04-24T23:07:05.345Z,5.04
2024-04-24T23:09:33.114Z,5.31
2024-04-24T23:12:01.076Z,5.03
2024-04-24T23:14:28.936Z,5.12
2024-04-24T23:16:56.675Z,4.92
2024-04-24T23:19:24.436Z,4.90
2024-04-24T23:21:52.171Z,4.50
2024-04-24T23:24:19.969Z,4.74
2024-04-24T23:26:47.740Z,4.58
2024-04-24T23:29:15.486Z,4.79
2024-04-24T23:31:43.316Z,5.33
2024-04-24T23:34:11.663Z,5.02
2024-04-24T23:36:39.397Z,5.08
2024-04-24T23:39:07.156Z,4.77
2024-04-24T23:41:34.934Z,4.89
2024-04-24T23:44:02.795Z,4.81
2024-04-24T23:46:30.583Z,4.79
2024-04-24T23:48:58.312Z,4.64
2024-04-24T23:51:26.050Z,4.58
2024-04-24T23:53:53.782Z,4.65
2024-04-24T23:56:21.586Z,4.06
2024-04-24T23:58:49.310Z,3.89
